createdAt,value
2022-10-20T00:01:59.124Z,9.38
2022-10-20T00:04:27.096Z,8.85
2022-10-20T00:06:54.999Z,8.43
2022-10-20T00:09:22.942Z,7.63
2022-10-20T00:11:50.860Z,8.23
2022-10-20T00:14:18.815Z,8.43
2022-10-20T00:16:46.720Z,8.23
2022-10-20T00:19:16.068Z,8.00
2022-10-20T00:21:44.047Z,8.13
2022-10-20T00:24:11.994Z,9.10
2022-10-20T00:26:39.988Z,7.32
2022-10-20T00:29:08.027Z,7.53
2022-10-20T00:31:35.993Z,8.50
2022-10-20T00:34:04.041Z,9.23
2022-10-20T00:36:33.405Z,8.77
2022-10-20T00:39:03.207Z,8.95
2022-10-20T00:41:32.498Z,9.93
2022-10-20T00:44:03.127Z,9.10
2022-10-20T00:46:34.767Z,9.38
2022-10-20T00:49:08.037Z,8.77
2022-10-20T00:51:37.381Z,9.15
2022-10-20T00:54:09.663Z,9.20
2022-10-20T00:56:41.129Z,9.02
2022-10-20T00:59:10.327Z,9.63
2022-10-20T01:01:39.379Z,9.50
2022-10-20T01:04:07.707Z,8.55
2022-10-20T01:06:37.685Z,9.02
2022-10-20T01:09:06.497Z,11.45
2022-10-20T01:11:44.040Z,11.60
2022-10-20T01:14:27.972Z,9.48
2022-10-20T01:17:05.437Z,9.00
2022-10-20T01:20:10.787Z,7.55
2022-10-20T01:23:01.460Z,7.85
2022-10-20T01:25:46.370Z,7.57
2022-10-20T01:28:21.741Z,8.57
2022-10-20T01:30:57.701Z,8.90
2022-10-20T01:33:34.196Z,8.70
2022-10-20T01:36:07.469Z,9.75
2022-10-20T01:38:41.973Z,10.45
2022-10-20T01:41:15.144Z,10.32
2022-10-20T01:43:47.760Z,11.02
2022-10-20T01:46:18.699Z,10.80
2022-10-20T01:48:47.735Z,9.38
2022-10-20T01:51:15.697Z,10.43
2022-10-20T01:53:43.643Z,9.23
2022-10-20T01:56:20.900Z,10.93
2022-10-20T01:59:11.852Z,10.02
2022-10-20T02:02:04.405Z,12.05
2022-10-20T02:04:43.852Z,11.93
2022-10-20T02:07:19.708Z,8.93
2022-10-20T02:09:52.876Z,8.00
2022-10-20T02:12:26.530Z,7.43
2022-10-20T02:14:56.973Z,8.10
2022-10-20T02:17:25.100Z,10.25
2022-10-20T02:19:54.957Z,8.75
2022-10-20T02:22:24.440Z,10.18
2022-10-20T02:24:52.690Z,12.20
2022-10-20T02:27:25.835Z,10.73
2022-10-20T02:30:00.313Z,11.30
2022-10-20T02:32:29.175Z,12.02
2022-10-20T02:34:57.081Z,10.65
2022-10-20T02:37:25.015Z,11.05
2022-10-20T02:39:53.109Z,10.77
2022-10-20T02:42:21.040Z,11.25
2022-10-20T02:44:48.916Z,10.02
2022-10-20T02:47:20.993Z,9.82
2022-10-20T02:49:48.981Z,9.38
2022-10-20T02:52:16.909Z,10.90
2022-10-20T02:54:44.844Z,11.57
2022-10-20T02:57:12.756Z,10.80
2022-10-20T02:59:40.738Z,11.05
2022-10-20T03:02:08.745Z,12.43
2022-10-20T03:04:38.188Z,12.38
2022-10-20T03:07:06.198Z,12.27
2022-10-20T03:09:34.135Z,11.38
2022-10-20T03:12:02.031Z,8.85
2022-10-20T03:14:30.000Z,8.10
2022-10-20T03:16:57.930Z,10.10
2022-10-20T03:19:25.977Z,9.05
2022-10-20T03:21:55.250Z,11.52
2022-10-20T03:24:23.182Z,11.43
2022-10-20T03:26:51.111Z,10.23
2022-10-20T03:29:19.189Z,10.38
2022-10-20T03:31:47.167Z,11.48
2022-10-20T03:34:15.165Z,11.98
2022-10-20T03:36:43.135Z,10.25
2022-10-20T03:39:12.482Z,10.95
2022-10-20T03:41:40.450Z,9.98
2022-10-20T03:44:08.780Z,10.95
2022-10-20T03:46:36.745Z,10.25
2022-10-20T03:49:05.087Z,10.82
2022-10-20T03:51:33.089Z,10.65
2022-10-20T03:54:01.002Z,10.50
2022-10-20T03:56:30.326Z,11.27
2022-10-20T03:58:58.299Z,11.00
2022-10-20T04:01:31.615Z,11.27
2022-10-20T04:03:59.726Z,12.43
2022-10-20T04:06:27.635Z,13.98
2022-10-20T04:08:55.704Z,14.68
2022-10-20T04:11:24.110Z,15.98
2022-10-20T04:13:53.511Z,17.83
2022-10-20T04:16:21.429Z,18.55
2022-10-20T04:18:49.466Z,16.67
2022-10-20T04:21:17.414Z,16.95
2022-10-20T04:23:45.344Z,15.40
2022-10-20T04:26:16.404Z,15.75
2022-10-20T04:28:44.411Z,18.20
2022-10-20T04:31:13.703Z,18.90
2022-10-20T04:33:41.663Z,19.00
2022-10-20T04:36:13.526Z,18.08
2022-10-20T04:38:41.549Z,15.90
2022-10-20T04:41:09.544Z,18.25
2022-10-20T04:43:37.524Z,16.00
2022-10-20T04:46:08.469Z,12.57
2022-10-20T04:48:39.164Z,12.40
2022-10-20T04:51:09.363Z,13.30
2022-10-20T04:53:37.964Z,12.80
2022-10-20T04:56:07.614Z,13.75
2022-10-20T04:58:36.472Z,11.07
2022-10-20T05:01:05.718Z,10.77
2022-10-20T05:03:34.205Z,14.80
2022-10-20T05:06:15.278Z,15.80
2022-10-20T05:08:44.938Z,15.18
2022-10-20T05:11:13.398Z,15.80
2022-10-20T05:13:41.313Z,15.00
2022-10-20T05:16:10.703Z,14.60
2022-10-20T05:18:39.520Z,12.57
2022-10-20T05:21:09.966Z,12.15
2022-10-20T05:23:40.785Z,12.18
2022-10-20T05:26:11.595Z,12.27
2022-10-20T05:28:40.043Z,12.80
2022-10-20T05:31:10.150Z,12.20
2022-10-20T05:33:39.087Z,12.43
2022-10-20T05:36:11.183Z,11.82
2022-10-20T05:38:40.819Z,11.50
2022-10-20T05:41:10.620Z,10.93
2022-10-20T05:43:38.846Z,11.00
2022-10-20T05:46:07.605Z,10.10
2022-10-20T05:48:40.675Z,9.85
2022-10-20T05:51:14.762Z,8.48
2022-10-20T05:53:47.028Z,8.70
2022-10-20T05:56:16.730Z,8.88
2022-10-20T05:58:45.395Z,7.95
2022-10-20T06:01:18.018Z,7.82
2022-10-20T06:03:49.198Z,7.43
2022-10-20T06:06:17.636Z,7.78
2022-10-20T06:08:47.038Z,8.90
2022-10-20T06:11:16.465Z,8.35
2022-10-20T06:13:47.130Z,8.35
2022-10-20T06:16:20.559Z,8.68
2022-10-20T06:18:48.883Z,8.32
2022-10-20T06:21:19.172Z,8.25
2022-10-20T06:23:49.103Z,10.15
2022-10-20T06:26:19.331Z,10.10
2022-10-20T06:28:50.553Z,11.88
2022-10-20T06:31:20.985Z,12.55
2022-10-20T06:33:49.260Z,12.38
2022-10-20T06:36:18.190Z,11.40
2022-10-20T06:38:46.358Z,11.02
2022-10-20T06:41:17.595Z,11.65
2022-10-20T06:43:46.186Z,10.85
2022-10-20T06:46:17.203Z,11.40
2022-10-20T06:48:45.722Z,11.07
2022-10-20T06:51:16.515Z,9.50
2022-10-20T06:53:46.761Z,9.65
2022-10-20T06:56:18.755Z,9.10
2022-10-20T06:58:49.067Z,10.32
2022-10-20T07:01:18.932Z,12.55
2022-10-20T07:03:48.596Z,11.60
2022-10-20T07:06:18.907Z,11.55
2022-10-20T07:08:47.442Z,12.38
2022-10-20T07:11:18.708Z,14.10
2022-10-20T07:13:49.160Z,12.90
2022-10-20T07:16:18.813Z,12.60
2022-10-20T07:18:46.862Z,13.18
2022-10-20T07:21:16.588Z,11.75
2022-10-20T07:23:44.733Z,11.60
2022-10-20T07:26:14.134Z,12.55
2022-10-20T07:28:45.105Z,10.50
2022-10-20T07:31:15.943Z,10.85
2022-10-20T07:33:44.107Z,10.85
2022-10-20T07:36:14.087Z,10.98
2022-10-20T07:38:42.438Z,10.20
2022-10-20T07:41:11.135Z,9.38
2022-10-20T07:43:40.152Z,8.73
2022-10-20T07:46:10.257Z,12.20
2022-10-20T07:48:38.467Z,11.93
2022-10-20T07:51:17.897Z,13.15
2022-10-20T07:53:46.127Z,11.68
2022-10-20T07:56:14.634Z,11.38
2022-10-20T07:58:42.883Z,12.05
2022-10-20T08:01:13.463Z,11.82
2022-10-20T08:03:41.444Z,10.77
2022-10-20T08:06:09.458Z,11.38
2022-10-20T08:08:37.513Z,10.95
2022-10-20T08:11:05.688Z,11.63
2022-10-20T08:13:33.945Z,10.95
2022-10-20T08:16:03.982Z,10.23
2022-10-20T08:18:48.929Z,10.40
2022-10-20T08:21:18.876Z,9.75
2022-10-20T08:23:48.792Z,10.43
2022-10-20T08:26:20.484Z,9.10
2022-10-20T08:28:49.051Z,8.52
2022-10-20T08:31:18.039Z,8.00
2022-10-20T08:33:52.103Z,8.60
2022-10-20T08:36:20.780Z,9.05
2022-10-20T08:38:48.936Z,8.80
2022-10-20T08:41:20.181Z,8.25
2022-10-20T08:43:49.942Z,8.23
2022-10-20T08:46:20.537Z,8.63
2022-10-20T08:48:50.703Z,8.07
2022-10-20T08:51:20.993Z,8.55
2022-10-20T08:53:51.873Z,8.15
2022-10-20T08:56:23.641Z,8.82
2022-10-20T08:58:52.257Z,8.13
2022-10-20T09:01:22.942Z,7.65
2022-10-20T09:03:58.849Z,7.90
2022-10-20T09:06:26.927Z,7.07
2022-10-20T09:08:56.239Z,6.40
2022-10-20T09:11:29.543Z,5.95
2022-10-20T09:13:57.472Z,6.18
2022-10-20T09:16:40.998Z,7.25
2022-10-20T09:19:21.039Z,6.40
2022-10-20T09:21:53.618Z,7.30
2022-10-20T09:24:23.643Z,7.53
2022-10-20T09:26:58.846Z,7.35
2022-10-20T09:29:36.995Z,6.85
2022-10-20T09:32:45.011Z,7.38
2022-10-20T09:35:31.796Z,6.57
2022-10-20T09:38:18.532Z,6.60
2022-10-20T09:40:55.968Z,6.53
2022-10-20T09:43:27.050Z,5.75
2022-10-20T09:45:59.173Z,5.70
2022-10-20T09:48:30.380Z,6.20
2022-10-20T09:51:01.866Z,6.78
2022-10-20T09:53:33.479Z,5.20
2022-10-20T09:56:01.800Z,5.35
2022-10-20T09:58:31.817Z,4.60
2022-10-20T10:01:02.799Z,5.55
2022-10-20T10:03:40.161Z,4.97
2022-10-20T10:06:40.365Z,5.45
2022-10-20T10:09:27.717Z,4.47
2022-10-20T10:12:00.628Z,5.25
2022-10-20T10:14:29.370Z,6.30
2022-10-20T10:16:57.683Z,7.30
2022-10-20T10:19:28.726Z,7.70
2022-10-20T10:22:00.978Z,7.75
2022-10-20T10:24:40.294Z,8.02
2022-10-20T10:27:20.880Z,7.93
2022-10-20T10:29:49.235Z,7.53
2022-10-20T10:32:19.187Z,7.40
2022-10-20T10:35:09.116Z,8.18
2022-10-20T10:37:41.353Z,7.88
2022-10-20T10:40:16.410Z,8.25
2022-10-20T10:42:56.225Z,9.75
2022-10-20T10:45:46.325Z,9.70
2022-10-20T10:48:42.264Z,10.18
2022-10-20T10:51:16.329Z,9.38
2022-10-20T10:53:56.936Z,10.40
2022-10-20T10:56:34.657Z,9.77
2022-10-20T10:59:11.744Z,11.88
2022-10-20T11:01:53.352Z,12.27
2022-10-20T11:05:06.229Z,11.18
2022-10-20T11:07:42.802Z,11.52
2022-10-20T11:10:20.710Z,9.52
2022-10-20T11:13:03.480Z,9.98
2022-10-20T11:15:52.131Z,11.15
2022-10-20T11:18:34.653Z,10.40
2022-10-20T11:21:11.033Z,10.40
2022-10-20T11:24:14.392Z,10.25
2022-10-20T11:26:47.579Z,9.75
2022-10-20T11:29:20.549Z,9.63
2022-10-20T11:31:54.691Z,8.45
2022-10-20T11:34:30.982Z,7.85
2022-10-20T11:37:07.383Z,7.70
2022-10-20T11:39:41.302Z,6.90
2022-10-20T11:42:21.635Z,6.38
2022-10-20T11:44:50.211Z,7.28
2022-10-20T11:47:22.438Z,6.05
2022-10-20T11:49:50.621Z,6.38
2022-10-20T11:52:39.371Z,6.88
2022-10-20T11:55:24.307Z,6.60
2022-10-20T11:58:10.422Z,7.13
2022-10-20T12:01:05.689Z,7.78
2022-10-20T12:04:05.969Z,7.68
2022-10-20T12:07:02.579Z,7.65
2022-10-20T12:09:50.182Z,8.30
2022-10-20T12:12:24.042Z,7.85
2022-10-20T12:14:58.078Z,7.75
2022-10-20T12:17:33.118Z,7.80
2022-10-20T12:20:37.523Z,7.70
2022-10-20T12:23:05.882Z,9.13
2022-10-20T12:25:42.134Z,8.52
2022-10-20T12:28:34.956Z,9.40
2022-10-20T12:31:05.626Z,8.70
2022-10-20T12:33:39.474Z,8.00
2022-10-20T12:36:29.510Z,7.82
2022-10-20T12:39:16.053Z,7.82
2022-10-20T12:41:56.197Z,7.82
2022-10-20T12:44:24.920Z,7.45
2022-10-20T12:46:56.826Z,8.20
2022-10-20T12:49:33.216Z,8.32
2022-10-20T12:52:03.486Z,8.73
2022-10-20T12:54:36.362Z,7.57
2022-10-20T12:57:07.341Z,8.27
2022-10-20T12:59:43.121Z,8.07
2022-10-20T13:02:34.140Z,7.28
2022-10-20T13:05:24.278Z,6.57
2022-10-20T13:08:04.675Z,6.38
2022-10-20T13:10:35.890Z,5.72
2022-10-20T13:13:37.849Z,6.30
2022-10-20T13:16:12.583Z,7.53
2022-10-20T13:18:49.770Z,7.20
2022-10-20T13:21:30.670Z,7.55
2022-10-20T13:24:04.223Z,7.75
2022-10-20T13:26:37.833Z,7.10
2022-10-20T13:29:13.897Z,7.53
2022-10-20T13:31:48.904Z,6.80
2022-10-20T13:34:25.949Z,7.13
2022-10-20T13:37:12.926Z,6.70
2022-10-20T13:39:49.803Z,6.30
2022-10-20T13:42:28.512Z,6.80
2022-10-20T13:45:04.991Z,5.85
2022-10-20T13:47:58.762Z,5.05
2022-10-20T13:50:33.217Z,5.40
2022-10-20T13:53:05.465Z,4.72
2022-10-20T13:55:56.156Z,4.28
2022-10-20T13:58:25.137Z,5.18
2022-10-20T14:01:02.019Z,4.70
2022-10-20T14:03:31.215Z,5.10
2022-10-20T14:06:00.500Z,4.50
2022-10-20T14:08:28.771Z,4.45
2022-10-20T14:10:59.488Z,4.22
2022-10-20T14:13:30.666Z,5.05
2022-10-20T14:16:01.258Z,4.30
2022-10-20T14:18:30.787Z,4.70
2022-10-20T14:21:03.079Z,5.38
2022-10-20T14:23:36.732Z,5.50
2022-10-20T14:26:07.724Z,4.70
2022-10-20T14:28:37.561Z,3.88
2022-10-20T14:31:06.524Z,3.67
2022-10-20T14:33:37.654Z,4.10
2022-10-20T14:36:07.272Z,3.70
2022-10-20T14:38:39.105Z,3.88
2022-10-20T14:41:09.702Z,4.32
2022-10-20T14:43:40.222Z,3.35
2022-10-20T14:46:10.005Z,3.88
2022-10-20T14:48:40.064Z,4.00
2022-10-20T14:51:31.562Z,3.60
2022-10-20T14:54:27.879Z,3.95
2022-10-20T14:56:57.958Z,3.83
2022-10-20T14:59:27.994Z,3.88
2022-10-20T15:02:01.199Z,4.32
2022-10-20T15:04:33.437Z,4.38
2022-10-20T15:07:09.053Z,3.92
2022-10-20T15:09:41.234Z,3.72
2022-10-20T15:12:16.928Z,4.05
2022-10-20T15:14:47.592Z,3.90
2022-10-20T15:17:37.193Z,4.75
2022-10-20T15:20:34.296Z,4.90
2022-10-20T15:23:05.558Z,4.35
2022-10-20T15:25:41.804Z,4.93
2022-10-20T15:28:21.781Z,5.43
2022-10-20T15:30:49.773Z,5.50
2022-10-20T15:33:17.920Z,5.68
2022-10-20T15:35:47.588Z,5.05
2022-10-20T15:38:16.920Z,5.18
2022-10-20T15:40:45.177Z,4.68
2022-10-20T15:43:15.316Z,4.72
2022-10-20T15:45:47.293Z,5.55
2022-10-20T15:48:15.223Z,5.03
2022-10-20T15:50:43.378Z,5.00
2022-10-20T15:53:13.129Z,4.30
2022-10-20T15:55:43.993Z,5.45
2022-10-20T15:58:12.063Z,6.38
2022-10-20T16:00:40.074Z,4.50
2022-10-20T16:03:08.307Z,4.75
2022-10-20T16:05:36.441Z,6.00
2022-10-20T16:08:04.415Z,5.82
2022-10-20T16:10:32.419Z,5.85
2022-10-20T16:13:01.856Z,5.65
2022-10-20T16:15:30.427Z,6.15
2022-10-20T16:17:59.223Z,6.47
2022-10-20T16:20:27.155Z,5.63
2022-10-20T16:22:55.139Z,4.90
2022-10-20T16:25:23.080Z,5.50
2022-10-20T16:27:51.033Z,5.82
2022-10-20T16:30:20.480Z,5.30
2022-10-20T16:32:48.450Z,5.03
2022-10-20T16:35:16.470Z,5.75
2022-10-20T16:37:44.457Z,5.35
2022-10-20T16:40:12.467Z,4.35
2022-10-20T16:42:40.394Z,5.45
2022-10-20T16:45:09.599Z,4.78
2022-10-20T16:47:39.470Z,5.13
2022-10-20T16:50:08.471Z,5.35
2022-10-20T16:52:36.455Z,5.28
2022-10-20T16:55:04.814Z,4.65
2022-10-20T16:57:38.666Z,5.35
2022-10-20T17:00:08.885Z,4.70
2022-10-20T17:02:40.337Z,4.70
2022-10-20T17:05:09.650Z,4.50
2022-10-20T17:07:38.379Z,4.93
2022-10-20T17:10:07.747Z,4.80
2022-10-20T17:12:35.656Z,4.50
2022-10-20T17:15:03.614Z,4.45
2022-10-20T17:17:31.536Z,4.57
2022-10-20T17:20:00.979Z,5.13
2022-10-20T17:22:28.891Z,9.57
2022-10-20T17:24:56.826Z,5.57
2022-10-20T17:27:24.790Z,6.32
2022-10-20T17:29:52.696Z,6.75
2022-10-20T17:32:20.597Z,5.65
2022-10-20T17:34:48.702Z,6.55
2022-10-20T17:37:17.972Z,6.00
2022-10-20T17:39:45.854Z,5.07
2022-10-20T17:42:13.751Z,4.70
2022-10-20T17:44:41.667Z,5.78
2022-10-20T17:47:09.603Z,4.85
2022-10-20T17:49:37.516Z,4.50
2022-10-20T17:52:05.699Z,5.30
2022-10-20T17:54:35.010Z,4.32
2022-10-20T17:57:02.912Z,5.63
2022-10-20T17:59:34.833Z,5.28
2022-10-20T18:02:11.254Z,5.03
2022-10-20T18:04:40.071Z,4.63
2022-10-20T18:07:07.979Z,5.38
2022-10-20T18:09:37.367Z,10.77
2022-10-20T18:12:05.558Z,11.15
2022-10-20T18:14:33.579Z,10.27
2022-10-20T18:17:01.524Z,19.15
2022-10-20T18:19:29.446Z,11.68
2022-10-20T18:21:57.340Z,11.38
2022-10-20T18:24:25.453Z,5.03
2022-10-20T18:26:54.723Z,5.03
2022-10-20T18:29:22.650Z,4.70
2022-10-20T18:31:51.371Z,5.22
2022-10-20T18:34:21.236Z,4.85
2022-10-20T18:36:50.459Z,4.07
2022-10-20T18:39:18.622Z,4.90
2022-10-20T18:41:46.680Z,5.13
2022-10-20T18:44:18.027Z,4.68
2022-10-20T18:46:46.822Z,4.40
2022-10-20T18:49:19.647Z,4.75
2022-10-20T18:51:48.455Z,5.05
2022-10-20T18:54:16.885Z,4.72
2022-10-20T18:56:45.457Z,3.92
2022-10-20T18:59:17.267Z,4.65
2022-10-20T19:01:46.005Z,5.10
2022-10-20T19:04:14.055Z,5.10
2022-10-20T19:06:43.829Z,5.03
2022-10-20T19:09:14.488Z,4.88
2022-10-20T19:11:43.438Z,4.57
2022-10-20T19:14:11.931Z,4.53
2022-10-20T19:16:43.028Z,4.82
2022-10-20T19:19:12.117Z,5.03
2022-10-20T19:21:40.297Z,4.50
2022-10-20T19:24:10.140Z,4.85
2022-10-20T19:26:40.562Z,4.70
2022-10-20T19:29:10.611Z,4.28
2022-10-20T19:31:42.851Z,5.03
2022-10-20T19:34:13.374Z,6.13
2022-10-20T19:36:41.979Z,6.05
2022-10-20T19:39:12.303Z,6.10
2022-10-20T19:41:40.400Z,4.80
2022-10-20T19:44:12.523Z,6.10
2022-10-20T19:46:42.686Z,5.03
2022-10-20T19:49:10.981Z,4.82
2022-10-20T19:51:39.467Z,5.38
2022-10-20T19:54:08.447Z,5.40
2022-10-20T19:56:36.955Z,5.10
2022-10-20T19:59:07.100Z,4.90
2022-10-20T20:01:36.328Z,4.88
2022-10-20T20:04:06.721Z,5.78
2022-10-20T20:06:36.224Z,5.03
2022-10-20T20:09:06.625Z,5.00
2022-10-20T20:11:36.385Z,5.28
2022-10-20T20:14:06.918Z,4.85
2022-10-20T20:16:34.998Z,5.50
2022-10-20T20:19:03.237Z,4.95
2022-10-20T20:21:33.117Z,4.57
2022-10-20T20:24:03.487Z,4.35
2022-10-20T20:26:33.497Z,4.63
2022-10-20T20:29:01.646Z,5.05
2022-10-20T20:31:29.888Z,4.18
2022-10-20T20:33:58.434Z,4.47
2022-10-20T20:36:27.972Z,4.63
2022-10-20T20:38:59.001Z,5.25
2022-10-20T20:41:30.098Z,4.75
2022-10-20T20:43:58.505Z,4.85
2022-10-20T20:46:29.251Z,4.55
2022-10-20T20:48:57.942Z,4.80
2022-10-20T20:51:27.132Z,4.88
2022-10-20T20:53:55.052Z,4.72
2022-10-20T20:56:26.859Z,5.30
2022-10-20T20:58:55.864Z,5.07
2022-10-20T21:01:27.486Z,4.43
2022-10-20T21:03:56.220Z,4.93
2022-10-20T21:06:33.399Z,5.20
2022-10-20T21:09:02.623Z,4.80
2022-10-20T21:11:32.074Z,4.70
2022-10-20T21:14:00.466Z,4.95
2022-10-20T21:16:30.574Z,4.80
2022-10-20T21:19:00.586Z,5.22
2022-10-20T21:21:30.279Z,3.92
2022-10-20T21:23:59.890Z,5.03
2022-10-20T21:26:30.095Z,5.38
2022-10-20T21:29:00.005Z,4.40
2022-10-20T21:31:29.085Z,4.90
2022-10-20T21:33:58.496Z,5.10
2022-10-20T21:36:28.493Z,5.32
2022-10-20T21:38:56.611Z,4.82
2022-10-20T21:41:26.089Z,5.57
2022-10-20T21:43:55.563Z,4.70
2022-10-20T21:46:27.331Z,5.30
2022-10-20T21:48:56.623Z,4.15
2022-10-20T21:51:26.566Z,5.00
2022-10-20T21:53:56.593Z,4.20
2022-10-20T21:56:25.336Z,5.57
2022-10-20T21:58:54.813Z,5.15
2022-10-20T22:01:25.776Z,5.30
2022-10-20T22:03:55.157Z,5.28
2022-10-20T22:06:24.974Z,5.35
2022-10-20T22:08:54.669Z,5.15
2022-10-20T22:11:26.616Z,5.97
2022-10-20T22:13:55.549Z,4.85
2022-10-20T22:16:26.834Z,4.70
2022-10-20T22:18:58.497Z,5.18
2022-10-20T22:21:27.236Z,5.15
2022-10-20T22:23:56.467Z,4.93
2022-10-20T22:26:26.805Z,5.20
2022-10-20T22:28:55.291Z,4.60
2022-10-20T22:31:25.782Z,5.05
2022-10-20T22:33:55.511Z,5.07
2022-10-20T22:36:24.348Z,5.25
2022-10-20T22:38:52.454Z,4.40
2022-10-20T22:41:20.376Z,5.07
2022-10-20T22:43:48.546Z,4.60
2022-10-20T22:46:16.910Z,4.78
2022-10-20T22:48:47.209Z,4.25
2022-10-20T22:51:15.551Z,4.30
2022-10-20T22:53:43.838Z,4.53
2022-10-20T22:56:14.391Z,4.68
2022-10-20T22:58:42.671Z,5.28
2022-10-20T23:01:12.738Z,4.57
2022-10-20T23:03:41.033Z,5.20
2022-10-20T23:06:13.813Z,4.82
2022-10-20T23:08:44.111Z,5.05
2022-10-20T23:11:12.657Z,4.95
2022-10-20T23:13:40.861Z,5.25
2022-10-20T23:16:09.386Z,5.57
2022-10-20T23:18:37.784Z,4.80
2022-10-20T23:21:06.564Z,5.00
2022-10-20T23:23:37.759Z,4.60
2022-10-20T23:26:06.947Z,4.63
2022-10-20T23:28:35.474Z,4.28
2022-10-20T23:31:09.314Z,4.22
2022-10-20T23:33:37.872Z,4.22
2022-10-20T23:36:06.198Z,4.78
2022-10-20T23:38:34.256Z,4.43
2022-10-20T23:41:03.833Z,4.70
2022-10-20T23:43:32.027Z,4.70
2022-10-20T23:46:00.623Z,4.30
2022-10-20T23:48:28.877Z,4.40
2022-10-20T23:50:56.978Z,5.13
2022-10-20T23:53:25.408Z,4.47
2022-10-20T23:55:53.352Z,4.15
2022-10-20T23:58:23.328Z,4.55
